Tomah, WI (54660)

12:40 AM CST on January 24, 2017 (GMT -0600)
| | Change Station
Active Advisory: Winter Storm Watch

Elev -9999 ft 0.00 °N, 0.00 °E | Updated 5 minutes ago

Overcast
Overcast
°F
Feels Like °F
N
Wind Variable Wind from North
Gusts mph

Today
High -- | Low -- °F
--% Chance of Precip.
Yesterday
High -- | Low -- °F
Precip. -- in
Pressure 29.87 in
Visibility 10.0 miles
Clouds Scattered Clouds 600 ft
Overcast 1200 ft
Dew Point Not available.
Humidity Not available.
Rainfall --
Snow Depth Not available.
7:26 AM 5:01 PM
Waning Crescent, 13% visible
METAR KVOK 240558Z AUTO 25004KT 10SM SCT006 OVC012 01/00 A2983 RMK AO2 CIG 006V012 SLP114 T00050002 10016 20005 400320005 51006
Pressure 29.87 in
Visibility 10.0 miles
Clouds Scattered Clouds 600 ft
Overcast 1200 ft
Dew Point Not available.
Humidity Not available.
Rainfall --
Snow Depth Not available.
7:26 AM 5:01 PM
Waning Crescent, 13% visible
METAR KVOK 240558Z AUTO 25004KT 10SM SCT006 OVC012 01/00 A2983 RMK AO2 CIG 006V012 SLP114 T00050002 10016 20005 400320005 51006

Get Your Daily Forecast Email!

Thanks for signing up!

Be on the lookout for a verification email in your inbox.

You'll start receiving the daily forecast at 8 AM.

×

10-Day Weather Forecast

Almanac

Astronomy

Jan. 24, 2017 Rise Set
Actual Time
Civil Twilight
Nautical Twilight
Astronomical Twilight
Moon
Length of Visible Light
Length of Day
Tomorrow will be .
, % of the Moon is Illuminated

Today's Extremes

State Highs State Lows

Community

WunderPhotos

Upload Photos

1,962,540 photos uploaded!

WunderBlog® & News

Nearby

Air Quality

  Air Quality AQ Index Pollutant
Not available.

Snow Depth

Station Depth Elevation

Earthquake Activity

City Distance Mag. Time & Date
Minimum magnitude displayed is 2.5.

Coastal Water Temperatures

Place Temperature

Stations

Nearby Weather Stations

Station Location Temp. Windchill Dew Point Humidity Wind Precip. Elev Updated Type
                   

Watches & Warnings

Winter Storm Watch
Issued: 9:15 PM CST Jan. 23, 2017 – National Weather Service

... Winter Storm Watch remains in effect from Tuesday afternoon
through Wednesday afternoon...

* periods of snow are expected to develop very late Tuesday
afternoon and evening.

* The heaviest snowfall rates are likely Tuesday evening and
night... with rates of 1 inch per hour and thunder possible.

* Total snow accumulations of 4 to 8 inches are possible. There
remains some uncertainty with amounts. Any small shift in
storm track could raise or lower expected amounts.

* Very difficult driving conditions are possible... especially
given the very wet nature of the expected snow.

Precautionary/preparedness actions...

A Winter Storm Watch means there is potential for significant
snow accumulation that may impact travel. Continue to monitor the
latest forecasts.



Rogers